SAMM/LGS METAR and TAF weather

Enter ICAO airport designator
Station Type Date Time Source
SAMM METAR 2021/01/30 13:40 UTC NOAA

SAMM 301340Z 23005KT 4500 RA SCT010 OVC030 11/10 Q1018


Station Type Date Time Source
SAMM Decoded METAR 2021/01/30 13:40 UTC NOAA

Malargue Aerodrome, Argentina (SAMM) 35-30S 069-35W 1425M
Jan 30, 2021 - 08:40 AM EST / 2021.01.30 1340 UTC
Wind: from the SW (230 degrees) at 6 MPH (5 KT):0
Visibility: 2 mile(s):0
Sky conditions: overcast
Weather: rain
Temperature: 51 F (11 C)
Dew Point: 50 F (10 C)
Relative Humidity: 93%
Pressure (altimeter): 30.06 in. Hg (1018 hPa)
ob: SAMM 301340Z 23005KT 4500 RA SCT010 OVC030 11/10 Q1018
cycle: 13

Station Type Date Time Source
SAMM TAF UTC NOAA

Error!

Example: see airport list